Time;durP1;ratioP1;P1;durP2;ratioP2;P2;SDS_P1;SDS_P2;PMS_P1;PMS_P2;Temp;Humidity;BMP_temperature;BMP_pressure;BME280_temperature;BME280_humidity;BME280_pressure;Samples;Min_cycle;Max_cycle;Signal;HPM_P1;HPM_P2
2021/11/21 00:02:39;;;;;;;32.00;14.48;;;8.00;69.60;;;;;;6264139;28;20124;-72
2021/11/21 00:05:44;;;;;;;37.15;14.50;;;8.10;69.70;;;;;;6224323;28;20041;-74
2021/11/21 00:08:45;;;;;;;32.85;13.27;;;8.10;69.60;;;;;;6251529;28;20442;-74
2021/11/21 00:11:46;;;;;;;27.10;11.82;;;8.10;69.60;;;;;;6255968;28;20124;-74
2021/11/21 00:14:47;;;;;;;25.73;12.68;;;8.00;69.60;;;;;;6261084;28;20052;-73
2021/11/21 00:17:49;;;;;;;32.03;13.40;;;8.00;69.60;;;;;;6251073;28;20104;-73
2021/11/21 00:20:50;;;;;;;26.90;13.35;;;8.00;69.40;;;;;;6280364;28;20029;-73
2021/11/21 00:23:51;;;;;;;30.02;13.40;;;8.00;69.40;;;;;;6248791;28;20036;-73
2021/11/21 00:26:52;;;;;;;30.98;13.43;;;8.00;69.30;;;;;;6266941;28;20029;-73
2021/11/21 00:29:54;;;;;;;29.98;13.43;;;8.00;69.40;;;;;;6264115;28;20053;-72
2021/11/21 00:32:55;;;;;;;28.77;13.85;;;8.00;69.50;;;;;;6262507;28;20079;-72
2021/11/21 00:35:56;;;;;;;27.30;13.07;;;8.00;69.40;;;;;;6236536;28;20040;-73
2021/11/21 00:39:02;;;;;;;36.85;13.82;;;8.00;69.60;;;;;;6258501;28;20033;-73
2021/11/21 00:42:03;;;;;;;32.88;14.23;;;8.00;69.00;;;;;;6267833;28;20063;-72
2021/11/21 00:45:06;;;;;;;25.27;11.15;;;8.00;69.00;;;;;;6252666;28;20037;-73
2021/11/21 00:48:07;;;;;;;35.63;13.93;;;8.00;68.90;;;;;;6267530;28;20040;-72
2021/11/21 00:51:08;;;;;;;26.73;12.68;;;8.10;69.00;;;;;;6249889;28;20037;-72
2021/11/21 00:54:40;;;;;;;25.35;12.05;;;8.00;68.90;;;;;;6252832;28;20029;-72
2021/11/21 00:57:43;;;;;;;23.23;12.10;;;8.00;68.90;;;;;;6265081;28;20055;-73
2021/11/21 01:00:48;;;;;;;24.30;10.80;;;8.00;69.00;;;;;;6254635;28;20361;-73
2021/11/21 01:03:49;;;;;;;24.80;11.70;;;8.00;68.90;;;;;;6276593;28;20057;-73
2021/11/21 01:06:50;;;;;;;24.85;11.77;;;8.00;68.90;;;;;;6250700;28;20103;-74
2021/11/21 01:09:51;;;;;;;28.70;11.98;;;8.00;68.90;;;;;;6257576;28;20049;-73
2021/11/21 01:12:55;;;;;;;28.05;12.90;;;8.00;69.00;;;;;;6257859;28;20033;-73
2021/11/21 01:15:56;;;;;;;30.48;11.82;;;7.90;69.10;;;;;;6282812;28;20068;-72
2021/11/21 01:18:57;;;;;;;30.70;12.98;;;7.90;69.30;;;;;;6234645;28;20083;-72
2021/11/21 01:21:58;;;;;;;28.30;12.13;;;7.90;69.30;;;;;;6253202;28;20040;-74
2021/11/21 01:25:00;;;;;;;30.80;11.27;;;8.10;69.40;;;;;;6260738;28;20989;-74
2021/11/21 01:28:01;;;;;;;24.08;11.50;;;8.00;69.30;;;;;;6249582;28;20045;-73
2021/11/21 01:31:03;;;;;;;28.25;12.80;;;8.00;69.20;;;;;;6266699;28;20037;-73
2021/11/21 01:34:04;;;;;;;25.55;11.88;;;8.00;69.20;;;;;;6246417;28;20128;-73
2021/11/21 01:37:05;;;;;;;26.95;11.27;;;8.10;69.30;;;;;;6248270;28;20145;-73
2021/11/21 01:40:10;;;;;;;30.30;11.90;;;8.10;69.20;;;;;;6255029;28;20048;-73
2021/11/21 01:43:11;;;;;;;20.55;10.10;;;8.10;69.20;;;;;;6256444;28;20067;-73
2021/11/21 01:46:12;;;;;;;26.15;11.00;;;8.20;69.00;;;;;;6253824;28;20037;-73
2021/11/21 01:49:13;;;;;;;25.17;11.00;;;8.20;68.70;;;;;;6236672;28;20044;-73
2021/11/21 01:52:14;;;;;;;21.65;9.98;;;8.10;68.50;;;;;;6247453;28;20137;-72
2021/11/21 01:55:15;;;;;;;23.58;11.18;;;8.10;68.40;;;;;;6266441;28;20052;-72
2021/11/21 01:58:16;;;;;;;24.92;11.13;;;8.10;68.40;;;;;;6261592;28;20079;-73
2021/11/21 02:01:18;;;;;;;25.70;12.05;;;8.20;68.50;;;;;;6275159;28;20037;-73
2021/11/21 02:04:19;;;;;;;30.00;12.30;;;8.20;68.30;;;;;;6239126;28;20459;-72
2021/11/21 02:07:20;;;;;;;26.95;10.82;;;8.20;68.30;;;;;;6268619;28;20036;-74
2021/11/21 02:10:23;;;;;;;21.65;10.20;;;8.30;68.20;;;;;;6255387;28;20374;-72
2021/11/21 02:13:24;;;;;;;31.75;10.23;;;8.30;67.80;;;;;;6247896;28;20400;-72
2021/11/21 02:16:27;;;;;;;24.33;10.68;;;8.30;67.70;;;;;;6255281;28;20044;-73
2021/11/21 02:19:28;;;;;;;28.65;11.13;;;8.30;67.70;;;;;;6273352;28;20425;-73
2021/11/21 02:22:30;;;;;;;23.30;10.52;;;8.20;67.60;;;;;;6262096;28;20041;-73
2021/11/21 02:25:34;;;;;;;26.45;10.43;;;8.10;67.50;;;;;;6244531;28;20398;-73
2021/11/21 02:28:37;;;;;;;26.30;10.05;;;8.00;68.70;;;;;;6246854;28;20057;-73
2021/11/21 02:31:39;;;;;;;19.15;9.13;;;8.00;68.10;;;;;;6260325;28;20029;-73
2021/11/21 02:34:40;;;;;;;22.00;8.98;;;8.00;68.20;;;;;;6253124;28;20462;-73
2021/11/21 02:37:42;;;;;;;18.70;9.00;;;7.90;68.00;;;;;;6258709;28;20470;-74
2021/11/21 02:40:43;;;;;;;23.63;10.35;;;7.90;68.20;;;;;;6262527;28;20032;-72
2021/11/21 02:43:46;;;;;;;19.13;9.10;;;7.80;68.10;;;;;;6263208;28;20041;-72
2021/11/21 02:46:47;;;;;;;21.88;10.88;;;7.70;68.00;;;;;;6270379;28;20033;-73
2021/11/21 02:49:48;;;;;;;22.02;10.50;;;7.70;68.20;;;;;;6272146;28;20123;-73
2021/11/21 02:52:51;;;;;;;22.65;10.40;;;7.60;68.40;;;;;;6256826;28;20037;-72
2021/11/21 02:55:58;;;;;;;23.25;10.40;;;7.60;68.40;;;;;;6272674;28;20029;-73
2021/11/21 02:58:59;;;;;;;22.42;10.20;;;7.50;68.30;;;;;;6270960;28;20121;-74
2021/11/21 03:02:00;;;;;;;24.15;10.05;;;7.50;68.30;;;;;;6270200;28;20049;-74
2021/11/21 03:05:01;;;;;;;23.88;10.30;;;7.40;68.40;;;;;;6248444;28;20038;-74
2021/11/21 03:08:03;;;;;;;20.10;10.75;;;7.40;68.50;;;;;;6273352;28;20045;-74
2021/11/21 03:11:34;;;;;;;24.33;9.43;;;7.30;68.70;;;;;;6270713;28;20040;-74
2021/11/21 03:14:36;;;;;;;25.25;9.15;;;7.30;69.00;;;;;;6267317;28;20038;-73
2021/11/21 03:17:39;;;;;;;29.27;10.68;;;7.30;69.10;;;;;;6262681;28;20056;-73
2021/11/21 03:20:40;;;;;;;20.80;9.57;;;7.30;69.10;;;;;;6247918;28;20045;-73
2021/11/21 03:23:41;;;;;;;19.70;9.30;;;7.30;69.20;;;;;;6249216;28;20405;-73
2021/11/21 03:26:43;;;;;;;21.70;9.23;;;7.30;69.30;;;;;;6252421;28;20355;-74
2021/11/21 03:29:44;;;;;;;19.27;8.07;;;7.30;69.10;;;;;;6260672;28;20033;-73
2021/11/21 03:32:48;;;;;;;20.88;8.05;;;7.20;69.10;;;;;;6260020;28;20029;-74
2021/11/21 03:35:49;;;;;;;26.02;9.68;;;7.10;69.20;;;;;;6253480;28;20030;-74
2021/11/21 03:38:50;;;;;;;21.27;9.25;;;7.10;69.50;;;;;;6266711;28;20467;-73
2021/11/21 03:41:51;;;;;;;24.63;10.68;;;7.10;69.90;;;;;;6278109;28;20043;-73
2021/11/21 03:44:53;;;;;;;21.58;10.38;;;7.10;70.10;;;;;;6261103;28;20107;-73
2021/11/21 03:52:10;;;;;;;19.25;8.80;;;7.20;69.90;;;;;;6262429;28;20033;-73
2021/11/21 03:55:13;;;;;;;19.83;8.85;;;7.30;69.90;;;;;;6255808;28;20528;-73
2021/11/21 03:58:15;;;;;;;17.17;8.32;;;7.30;69.60;;;;;;6251994;28;20147;-72
2021/11/21 04:01:16;;;;;;;23.55;10.93;;;7.20;69.20;;;;;;6272743;28;20041;-73
2021/11/21 04:04:18;;;;;;;18.25;9.32;;;7.20;69.30;;;;;;6268580;28;20039;-73
2021/11/21 04:07:19;;;;;;;19.10;9.15;;;7.10;69.50;;;;;;6260401;28;20094;-73
2021/11/21 04:10:20;;;;;;;20.90;10.30;;;7.10;69.80;;;;;;6257482;28;20367;-73
2021/11/21 04:13:39;;;;;;;18.08;8.68;;;7.10;70.00;;;;;;6271875;28;20033;-73
2021/11/21 04:16:40;;;;;;;14.93;8.18;;;7.10;69.90;;;;;;6268550;28;20033;-72
2021/11/21 04:19:43;;;;;;;21.92;9.10;;;7.20;70.00;;;;;;6266314;28;20119;-73
2021/11/21 04:22:45;;;;;;;23.13;8.98;;;7.20;69.80;;;;;;6254576;28;20037;-73
2021/11/21 04:25:46;;;;;;;13.63;7.53;;;7.20;69.70;;;;;;6263834;28;20137;-73
2021/11/21 04:28:48;;;;;;;13.60;7.20;;;7.20;69.40;;;;;;6238563;28;20045;-73
2021/11/21 04:31:52;;;;;;;15.00;7.22;;;7.20;69.40;;;;;;6265363;28;20045;-74
2021/11/21 04:34:53;;;;;;;14.48;8.25;;;7.10;69.40;;;;;;6268850;28;20048;-73
2021/11/21 04:37:54;;;;;;;18.88;9.13;;;7.10;69.50;;;;;;6269238;28;20703;-72
2021/11/21 04:40:55;;;;;;;18.50;8.57;;;7.10;69.40;;;;;;6262189;28;20073;-73
2021/11/21 04:43:57;;;;;;;17.45;8.30;;;7.10;69.50;;;;;;6243126;28;20479;-73
2021/11/21 04:46:58;;;;;;;19.58;9.73;;;7.10;69.30;;;;;;6250817;28;20051;-73
2021/11/21 04:49:59;;;;;;;16.42;8.85;;;7.00;69.20;;;;;;6263458;28;20021;-73
2021/11/21 04:53:00;;;;;;;10.30;6.40;;;7.10;69.30;;;;;;6262123;28;20414;-72
2021/11/21 04:56:03;;;;;;;20.33;9.10;;;7.10;69.20;;;;;;6246244;28;20030;-73
2021/11/21 04:59:04;;;;;;;15.73;8.15;;;7.10;69.10;;;;;;6252413;28;20044;-73
2021/11/21 05:02:05;;;;;;;17.75;8.52;;;7.10;69.00;;;;;;6262102;28;20355;-73
2021/11/21 05:05:08;;;;;;;19.92;8.70;;;7.10;68.70;;;;;;6288485;28;20037;-73
2021/11/21 05:08:09;;;;;;;19.48;8.80;;;7.10;68.60;;;;;;6256846;28;20088;-72
2021/11/21 05:11:11;;;;;;;21.85;9.18;;;7.00;68.50;;;;;;6243280;28;20458;-73
2021/11/21 05:14:15;;;;;;;20.13;8.43;;;6.90;68.10;;;;;;6253874;28;20053;-73
2021/11/21 05:21:35;;;;;;;23.60;8.60;;;6.80;68.50;;;;;;6264539;28;20041;-73
2021/11/21 05:24:36;;;;;;;22.55;11.15;;;6.70;68.60;;;;;;6249209;28;20040;-73
2021/11/21 05:27:37;;;;;;;26.67;11.27;;;6.70;68.50;;;;;;6269664;28;20033;-72
2021/11/21 05:30:38;;;;;;;37.13;13.02;;;6.70;68.50;;;;;;6287302;28;20029;-73
2021/11/21 05:33:39;;;;;;;29.70;12.52;;;6.70;68.60;;;;;;6261689;28;20044;-73
2021/11/21 05:36:40;;;;;;;31.20;14.20;;;6.70;68.60;;;;;;6251245;28;20033;-73
2021/11/21 05:39:41;;;;;;;31.63;12.32;;;6.70;68.80;;;;;;6247531;28;20059;-73
2021/11/21 05:42:42;;;;;;;26.02;10.18;;;6.70;68.90;;;;;;6261779;28;20037;-72
2021/11/21 05:45:43;;;;;;;20.05;10.07;;;6.70;68.80;;;;;;6246425;28;20065;-73
2021/11/21 05:48:44;;;;;;;20.13;8.75;;;6.70;68.80;;;;;;6253865;28;20029;-73
2021/11/21 05:51:45;;;;;;;13.55;5.63;;;6.70;68.80;;;;;;6259598;28;20095;-73
2021/11/21 05:54:46;;;;;;;21.77;8.50;;;6.80;68.60;;;;;;6268297;28;20048;-73
2021/11/21 05:57:48;;;;;;;15.77;7.68;;;6.70;68.50;;;;;;6265062;28;20053;-73
2021/11/21 06:00:49;;;;;;;15.75;7.82;;;6.80;68.50;;;;;;6263922;28;20041;-74
2021/11/21 06:03:51;;;;;;;18.20;8.32;;;6.70;68.10;;;;;;6265523;28;20052;-73
2021/11/21 06:06:52;;;;;;;22.05;10.18;;;6.70;68.10;;;;;;6261093;28;20029;-72
2021/11/21 06:09:53;;;;;;;15.75;7.22;;;6.60;68.20;;;;;;6268436;28;20063;-73
2021/11/21 06:12:54;;;;;;;13.10;6.35;;;6.60;68.20;;;;;;6243692;28;20033;-73
2021/11/21 06:15:55;;;;;;;16.42;7.80;;;6.60;68.20;;;;;;6254153;28;20057;-71
2021/11/21 06:18:56;;;;;;;15.23;7.07;;;6.60;68.20;;;;;;6253891;28;20447;-72
2021/11/21 06:21:57;;;;;;;18.00;7.47;;;6.50;68.20;;;;;;6250301;28;20479;-72
2021/11/21 06:24:58;;;;;;;16.63;6.63;;;6.50;68.10;;;;;;6254165;28;20033;-72
2021/11/21 06:27:59;;;;;;;15.73;7.47;;;6.40;68.20;;;;;;6242551;28;20033;-73
2021/11/21 06:35:16;;;;;;;14.75;6.68;;;6.40;68.60;;;;;;6264039;28;20124;-73
2021/11/21 06:38:17;;;;;;;21.13;8.98;;;6.40;68.50;;;;;;6264281;28;20039;-73
2021/11/21 06:41:20;;;;;;;18.15;7.38;;;6.40;68.40;;;;;;6260154;28;20132;-73
2021/11/21 06:44:21;;;;;;;18.42;8.00;;;6.40;68.30;;;;;;6284792;28;20043;-73
2021/11/21 06:47:23;;;;;;;27.58;9.68;;;6.30;68.20;;;;;;6263833;28;20029;-73
2021/11/21 06:50:24;;;;;;;20.90;6.68;;;6.20;68.30;;;;;;6252725;28;20034;-73
2021/11/21 06:53:25;;;;;;;16.92;7.05;;;6.20;68.60;;;;;;6241398;28;20038;-73
2021/11/21 06:56:29;;;;;;;16.13;7.30;;;6.30;68.90;;;;;;6255571;28;20087;-74
2021/11/21 06:59:30;;;;;;;11.93;5.93;;;6.30;68.80;;;;;;6267786;28;20128;-73
2021/11/21 07:02:31;;;;;;;13.13;6.60;;;6.30;68.70;;;;;;6254806;28;20482;-73
2021/11/21 07:05:32;;;;;;;12.30;5.82;;;6.20;68.70;;;;;;6245763;28;20033;-74
2021/11/21 07:08:33;;;;;;;12.02;6.28;;;6.30;69.10;;;;;;6268067;28;20484;-73
2021/11/21 07:11:35;;;;;;;14.48;7.75;;;6.30;69.00;;;;;;6263335;28;20032;-73
2021/11/21 07:14:37;;;;;;;14.55;6.60;;;6.40;69.10;;;;;;6262568;28;20056;-74
2021/11/21 07:17:38;;;;;;;13.88;8.13;;;6.30;68.90;;;;;;6267719;28;20466;-73
2021/11/21 07:20:39;;;;;;;15.88;7.13;;;6.30;68.80;;;;;;6256686;28;20044;-73
2021/11/21 07:23:41;;;;;;;15.32;6.57;;;6.40;69.00;;;;;;6264657;28;20090;-73
2021/11/21 07:26:43;;;;;;;15.65;7.68;;;6.30;68.70;;;;;;6255546;28;20056;-73
2021/11/21 07:29:44;;;;;;;14.75;8.13;;;6.30;68.70;;;;;;6246694;28;20488;-73
2021/11/21 07:32:46;;;;;;;19.25;9.00;;;6.20;68.80;;;;;;6257716;28;20044;-73
2021/11/21 07:35:47;;;;;;;17.17;7.88;;;6.20;69.20;;;;;;6255786;28;20140;-74
2021/11/21 07:38:48;;;;;;;16.65;7.38;;;6.30;69.40;;;;;;6244674;28;20437;-72
2021/11/21 07:41:49;;;;;;;16.35;7.43;;;6.30;69.30;;;;;;6255166;28;20489;-73
2021/11/21 07:44:50;;;;;;;12.00;7.47;;;6.40;69.40;;;;;;6265084;28;20037;-74
2021/11/21 07:47:51;;;;;;;12.68;6.75;;;6.40;69.30;;;;;;6269783;28;20386;-73
2021/11/21 07:50:53;;;;;;;11.95;6.45;;;6.50;69.20;;;;;;6269060;28;20055;-73
2021/11/21 07:53:54;;;;;;;14.63;6.32;;;6.50;69.20;;;;;;6268268;28;20381;-73
2021/11/21 07:56:54;;;;;;;17.05;7.85;;;6.70;69.20;;;;;;6252344;28;20152;-74
2021/11/21 07:59:55;;;;;;;17.33;8.15;;;6.70;69.00;;;;;;6272434;28;20103;-73
2021/11/21 08:02:57;;;;;;;12.18;7.28;;;6.70;68.90;;;;;;6270350;28;20034;-73
2021/11/21 08:05:58;;;;;;;22.80;8.88;;;6.80;68.90;;;;;;6269312;28;20048;-73
2021/11/21 08:08:59;;;;;;;11.77;6.55;;;6.90;68.80;;;;;;6251781;28;20343;-75
2021/11/21 08:12:00;;;;;;;18.65;8.10;;;6.90;68.60;;;;;;6271578;28;20098;-73
2021/11/21 08:15:01;;;;;;;15.95;8.25;;;7.00;68.50;;;;;;6270522;28;20049;-74
2021/11/21 08:18:03;;;;;;;13.23;6.22;;;7.00;68.40;;;;;;6255601;28;20049;-74
2021/11/21 08:21:05;;;;;;;14.32;6.97;;;7.00;68.30;;;;;;6253749;28;20351;-73
2021/11/21 08:24:09;;;;;;;13.70;7.03;;;7.10;68.20;;;;;;6286576;28;20025;-76
2021/11/21 08:27:12;;;;;;;13.43;6.57;;;7.10;68.10;;;;;;6269558;28;20775;-73
2021/11/21 08:30:13;;;;;;;15.68;7.10;;;7.10;68.20;;;;;;6262916;28;20034;-74
2021/11/21 08:33:15;;;;;;;20.60;7.88;;;7.20;68.00;;;;;;6246222;28;20079;-73
2021/11/21 08:36:16;;;;;;;18.77;8.60;;;7.20;67.80;;;;;;6254231;28;20033;-73
2021/11/21 08:39:21;;;;;;;19.30;7.72;;;7.20;67.70;;;;;;6247296;28;20455;-75
2021/11/21 08:42:22;;;;;;;21.63;7.82;;;7.30;67.60;;;;;;6243485;28;20560;-74
2021/11/21 08:45:23;;;;;;;18.20;7.95;;;7.20;67.40;;;;;;6269346;28;20033;-75
2021/11/21 08:48:24;;;;;;;16.80;7.28;;;7.30;67.50;;;;;;6253376;28;20048;-72
2021/11/21 08:51:25;;;;;;;17.63;7.07;;;7.30;67.40;;;;;;6245651;28;20037;-74
2021/11/21 08:54:26;;;;;;;30.58;9.35;;;7.40;67.80;;;;;;6243411;28;20033;-76
2021/11/21 08:57:26;;;;;;;18.85;8.98;;;7.40;67.30;;;;;;6260835;28;20036;-74
2021/11/21 09:00:27;;;;;;;29.13;10.13;;;7.50;67.20;;;;;;6263856;28;20084;-74
2021/11/21 09:03:30;;;;;;;27.35;9.95;;;7.60;67.00;;;;;;6260016;28;20397;-73
2021/11/21 09:06:31;;;;;;;22.75;9.50;;;7.70;66.90;;;;;;6265390;28;20171;-73
2021/11/21 09:09:33;;;;;;;21.92;10.15;;;7.80;66.90;;;;;;6200400;28;20124;-72
2021/11/21 09:12:34;;;;;;;22.30;9.48;;;7.90;66.70;;;;;;6259542;28;20038;-75
2021/11/21 09:15:35;;;;;;;21.73;9.02;;;7.90;66.70;;;;;;6253149;28;20034;-73
2021/11/21 09:18:37;;;;;;;23.58;9.40;;;8.00;66.50;;;;;;6246526;28;20038;-74
2021/11/21 09:21:38;;;;;;;22.23;9.52;;;8.10;66.30;;;;;;6250225;28;20045;-73
2021/11/21 09:24:39;;;;;;;28.15;11.60;;;8.10;66.30;;;;;;6251824;28;20109;-76
2021/11/21 09:27:40;;;;;;;26.60;11.20;;;8.20;65.80;;;;;;6249814;28;20025;-74
2021/11/21 09:30:41;;;;;;;28.38;11.88;;;8.20;65.40;;;;;;6259234;28;20503;-75
2021/11/21 09:33:42;;;;;;;25.73;9.95;;;8.20;65.10;;;;;;6266730;28;20036;-73
2021/11/21 09:36:45;;;;;;;21.10;9.10;;;8.20;64.90;;;;;;6267679;28;20167;-72
2021/11/21 09:39:46;;;;;;;22.83;8.07;;;8.20;64.80;;;;;;6244024;28;20037;-71
2021/11/21 09:42:47;;;;;;;27.30;10.48;;;8.30;64.90;;;;;;6249774;28;20078;-72
2021/11/21 09:45:49;;;;;;;21.35;9.15;;;8.30;64.80;;;;;;6267166;28;20369;-72
2021/11/21 09:48:50;;;;;;;32.08;13.07;;;8.40;64.90;;;;;;6264805;28;20513;-73
2021/11/21 09:51:51;;;;;;;28.02;13.23;;;8.50;64.60;;;;;;6267748;28;20071;-73
2021/11/21 09:54:51;;;;;;;26.90;12.45;;;8.50;64.20;;;;;;6255741;28;20036;-73
2021/11/21 09:57:53;;;;;;;19.70;9.48;;;8.50;63.90;;;;;;6267912;28;20428;-72
2021/11/21 10:00:54;;;;;;;24.40;11.05;;;8.50;63.70;;;;;;6265645;28;20048;-72
2021/11/21 10:03:55;;;;;;;23.23;11.88;;;8.50;63.70;;;;;;6265138;28;20033;-72
2021/11/21 10:06:56;;;;;;;29.05;13.18;;;8.40;63.70;;;;;;6258575;28;20082;-72
2021/11/21 10:09:59;;;;;;;23.98;10.82;;;8.40;63.90;;;;;;6262511;28;20029;-72
2021/11/21 10:12:59;;;;;;;18.52;9.20;;;8.50;64.20;;;;;;6238959;28;20032;-72
2021/11/21 10:16:19;;;;;;;23.17;10.70;;;8.50;64.20;;;;;;6263612;28;20382;-72
2021/11/21 10:19:20;;;;;;;22.25;10.57;;;8.60;64.00;;;;;;6244247;28;20045;-72
2021/11/21 10:22:21;;;;;;;24.83;9.95;;;8.60;63.80;;;;;;6257212;28;20468;-72
2021/11/21 10:25:52;;;;;;;27.92;11.15;;;8.60;63.70;;;;;;6274750;28;20037;-72
2021/11/21 10:28:53;;;;;;;26.25;10.60;;;8.70;63.90;;;;;;6263843;28;20457;-72
2021/11/21 10:31:54;;;;;;;26.60;11.32;;;8.60;63.60;;;;;;6259666;28;20047;-73
2021/11/21 10:34:58;;;;;;;31.38;12.63;;;8.60;63.70;;;;;;6263727;28;20195;-72
2021/11/21 10:38:00;;;;;;;33.20;11.10;;;8.60;63.90;;;;;;6256164;28;20042;-72
2021/11/21 10:41:06;;;;;;;27.20;11.38;;;8.70;64.20;;;;;;6250823;28;20048;-73
2021/11/21 10:44:06;;;;;;;33.38;13.63;;;8.70;64.00;;;;;;6240006;28;20037;-72
2021/11/21 10:47:07;;;;;;;35.47;13.40;;;8.70;64.00;;;;;;6238777;28;20037;-72
2021/11/21 10:50:10;;;;;;;26.88;11.55;;;8.80;63.90;;;;;;6278290;28;20033;-74
2021/11/21 10:53:12;;;;;;;30.50;12.00;;;8.80;63.90;;;;;;6246537;28;20112;-74
2021/11/21 10:56:13;;;;;;;30.60;12.07;;;8.90;64.00;;;;;;6254124;28;20462;-73
2021/11/21 10:59:31;;;;;;;39.30;14.93;;;9.00;64.80;;;;;;6240798;28;20029;-73
2021/11/21 11:02:43;;;;;;;35.63;14.15;;;9.00;63.90;;;;;;6246287;28;20048;-73
2021/11/21 11:05:46;;;;;;;30.75;10.95;;;9.20;63.70;;;;;;6252266;28;20038;-73
2021/11/21 11:08:48;;;;;;;21.42;10.50;;;9.20;63.40;;;;;;6258597;28;20351;-73
2021/11/21 11:11:50;;;;;;;25.73;12.15;;;9.30;63.50;;;;;;6251109;28;20072;-72
2021/11/21 11:14:55;;;;;;;21.65;10.93;;;9.40;63.50;;;;;;6248037;28;20049;-73
2021/11/21 11:17:57;;;;;;;24.23;10.77;;;9.60;63.20;;;;;;6262698;28;20038;-73
2021/11/21 11:20:58;;;;;;;23.33;11.07;;;9.80;63.10;;;;;;6265281;28;20382;-73
2021/11/21 11:23:59;;;;;;;25.02;11.52;;;10.00;62.80;;;;;;6244434;28;20063;-74
2021/11/21 11:27:17;;;;;;;23.88;11.38;;;10.20;62.50;;;;;;6261209;28;20409;-72
2021/11/21 11:30:28;;;;;;;23.77;11.93;;;10.40;62.00;;;;;;6260086;28;20413;-74
2021/11/21 11:33:38;;;;;;;26.50;12.25;;;10.50;61.40;;;;;;6240641;28;20100;-70
2021/11/21 11:36:39;;;;;;;23.98;10.85;;;10.60;61.20;;;;;;6247933;28;20033;-72
2021/11/21 11:39:45;;;;;;;22.40;9.95;;;10.70;60.90;;;;;;6248345;28;20029;-70
2021/11/21 11:42:45;;;;;;;22.20;10.55;;;10.70;60.70;;;;;;6261001;28;20036;-72
2021/11/21 11:45:52;;;;;;;22.85;10.68;;;10.60;60.50;;;;;;6244793;28;20373;-72
2021/11/21 11:49:03;;;;;;;20.17;8.90;;;10.60;60.50;;;;;;6229105;28;20029;-72
2021/11/21 11:52:04;;;;;;;30.17;13.63;;;10.60;60.70;;;;;;6258648;28;20549;-72
2021/11/21 11:55:08;;;;;;;22.35;10.68;;;10.60;60.80;;;;;;6263939;28;20052;-73
2021/11/21 12:02:32;;;;;;;19.88;8.57;;;10.60;61.00;;;;;;6235062;28;20040;-72
2021/11/21 12:05:36;;;;;;;21.77;9.45;;;10.60;60.60;;;;;;6245732;28;20051;-72
2021/11/21 12:08:42;;;;;;;19.02;8.48;;;10.60;60.60;;;;;;6252716;28;20103;-73
2021/11/21 12:12:03;;;;;;;30.25;11.27;;;10.50;60.70;;;;;;6248448;28;20033;-72
2021/11/21 12:15:29;;;;;;;18.13;8.63;;;10.50;60.90;;;;;;6225924;28;20041;-72
2021/11/21 12:18:55;;;;;;;23.15;10.43;;;10.50;61.10;;;;;;6254500;28;20033;-72
2021/11/21 12:21:58;;;;;;;29.52;11.45;;;10.50;61.10;;;;;;6230584;28;20497;-72
2021/11/21 12:25:05;;;;;;;23.75;11.45;;;10.60;61.20;;;;;;6250190;28;20118;-72
2021/11/21 12:28:06;;;;;;;24.73;11.10;;;10.60;61.30;;;;;;6237035;28;20048;-72
2021/11/21 12:31:28;;;;;;;25.48;11.73;;;10.70;61.20;;;;;;6248020;28;20037;-70
2021/11/21 12:34:45;;;;;;;38.22;12.60;;;10.80;61.30;;;;;;6261400;28;20185;-73
2021/11/21 12:37:48;;;;;;;21.60;10.80;;;10.90;61.10;;;;;;6273295;28;20044;-72
2021/11/21 12:40:55;;;;;;;24.73;10.95;;;11.00;60.80;;;;;;6239159;28;20108;-73
2021/11/21 12:43:56;;;;;;;22.40;11.52;;;11.10;60.70;;;;;;6256515;28;20030;-73
2021/11/21 12:47:05;;;;;;;25.83;12.55;;;11.20;60.60;;;;;;6252757;28;20116;-73
2021/11/21 12:50:07;;;;;;;23.35;11.90;;;11.20;60.30;;;;;;6264017;28;20468;-74
2021/11/21 12:53:11;;;;;;;23.50;11.40;;;11.30;60.20;;;;;;6277846;28;20119;-76
2021/11/21 12:56:13;;;;;;;29.73;10.75;;;11.30;60.10;;;;;;6257595;28;20053;-73
2021/11/21 12:59:14;;;;;;;24.63;11.40;;;11.30;60.10;;;;;;6267175;28;20033;-73
2021/11/21 13:02:18;;;;;;;29.23;13.65;;;11.30;60.10;;;;;;6277372;28;20465;-72
2021/11/21 13:05:20;;;;;;;27.33;12.40;;;11.40;60.10;;;;;;6239494;28;20029;-72
2021/11/21 13:08:23;;;;;;;25.65;11.75;;;11.40;60.00;;;;;;6268762;28;20040;-73
2021/11/21 13:11:25;;;;;;;27.80;13.23;;;11.50;60.00;;;;;;6256775;28;20421;-74
2021/11/21 13:14:26;;;;;;;25.25;12.13;;;11.60;59.90;;;;;;6251685;28;20037;-73
2021/11/21 13:17:27;;;;;;;25.10;11.48;;;11.70;59.80;;;;;;6264857;28;20111;-72
2021/11/21 13:20:28;;;;;;;33.28;13.15;;;11.70;59.50;;;;;;6230299;28;20673;-73
2021/11/21 13:23:29;;;;;;;28.67;11.80;;;11.70;59.40;;;;;;6257480;28;20060;-73
2021/11/21 13:26:30;;;;;;;28.85;12.40;;;11.70;59.20;;;;;;6250939;28;20093;-74
2021/11/21 13:29:32;;;;;;;25.35;12.13;;;11.60;59.30;;;;;;6264302;28;20133;-75
2021/11/21 13:32:33;;;;;;;24.38;12.52;;;11.60;59.20;;;;;;6206579;28;20132;-74
2021/11/21 13:35:34;;;;;;;32.30;13.85;;;11.60;59.00;;;;;;6247622;28;20577;-73
2021/11/21 13:38:34;;;;;;;28.38;12.80;;;11.60;59.10;;;;;;6253215;28;20538;-73
2021/11/21 13:41:37;;;;;;;25.70;12.48;;;11.60;59.00;;;;;;6258462;28;20049;-72
2021/11/21 13:44:45;;;;;;;28.25;13.80;;;11.60;59.10;;;;;;6223545;28;20060;-74
2021/11/21 13:47:46;;;;;;;25.63;11.07;;;11.60;59.20;;;;;;6242852;28;20063;-74
2021/11/21 13:50:49;;;;;;;29.08;13.48;;;11.60;59.20;;;;;;6241443;28;20033;-76
2021/11/21 13:53:52;;;;;;;32.97;14.70;;;11.60;59.20;;;;;;6260317;28;20584;-73
2021/11/21 13:56:53;;;;;;;24.60;11.73;;;11.60;59.30;;;;;;6247760;28;20045;-73
2021/11/21 13:59:57;;;;;;;30.65;14.00;;;11.60;59.90;;;;;;6249457;28;20450;-73
2021/11/21 14:03:09;;;;;;;25.88;12.30;;;11.60;59.30;;;;;;6232740;28;20041;-72
2021/11/21 14:06:12;;;;;;;44.40;13.40;;;11.60;59.30;;;;;;6236664;28;21112;-73
2021/11/21 14:09:15;;;;;;;34.42;13.48;;;11.60;59.20;;;;;;6260145;28;20399;-75
2021/11/21 14:12:21;;;;;;;34.60;13.65;;;11.60;59.20;;;;;;6249022;28;20473;-73
2021/11/21 14:15:27;;;;;;;29.50;13.70;;;11.60;59.30;;;;;;6249750;28;20049;-73
2021/11/21 14:18:36;;;;;;;30.35;13.25;;;11.70;59.30;;;;;;6264119;28;20025;-73
2021/11/21 14:21:38;;;;;;;31.60;12.68;;;11.70;59.30;;;;;;6260448;28;20664;-70
2021/11/21 14:24:44;;;;;;;30.77;13.10;;;11.80;59.30;;;;;;6240413;28;20037;-73
2021/11/21 14:27:44;;;;;;;27.80;13.38;;;12.00;59.20;;;;;;6263806;28;20652;-73
2021/11/21 14:30:48;;;;;;;24.70;12.35;;;12.00;59.00;;;;;;6260592;28;20088;-73
2021/11/21 14:33:52;;;;;;;41.28;13.93;;;12.10;58.90;;;;;;6263225;28;20052;-73
2021/11/21 14:36:52;;;;;;;35.33;14.57;;;12.20;58.90;;;;;;6258102;28;20033;-73
2021/11/21 14:39:56;;;;;;;38.88;17.23;;;12.30;58.70;;;;;;6265440;28;20057;-74
2021/11/21 14:42:57;;;;;;;34.78;15.77;;;12.30;58.70;;;;;;6278442;28;20453;-75
2021/11/21 14:45:58;;;;;;;33.20;14.75;;;12.30;58.70;;;;;;6236219;28;20185;-74
2021/11/21 14:49:02;;;;;;;38.17;15.48;;;12.30;58.60;;;;;;6262645;28;20116;-75
2021/11/21 14:52:07;;;;;;;33.30;14.13;;;12.30;58.60;;;;;;6244521;28;20366;-73
2021/11/21 14:55:10;;;;;;;26.80;13.82;;;12.30;58.70;;;;;;6244488;28;20071;-75
2021/11/21 14:58:19;;;;;;;29.23;13.50;;;12.30;58.50;;;;;;6248221;28;20048;-76
2021/11/21 15:01:24;;;;;;;32.95;13.48;;;12.30;58.40;;;;;;6253698;28;20049;-75
2021/11/21 15:04:25;;;;;;;54.83;21.42;;;12.30;58.30;;;;;;6279912;28;20029;-75
2021/11/21 15:07:26;;;;;;;45.15;18.83;;;12.30;58.30;;;;;;6262526;28;20037;-74
2021/11/21 15:10:27;;;;;;;31.65;13.95;;;12.30;58.40;;;;;;6264221;28;20071;-76
2021/11/21 15:13:28;;;;;;;28.45;13.38;;;12.30;58.30;;;;;;6258065;28;20377;-75
2021/11/21 15:16:29;;;;;;;34.03;14.00;;;12.20;58.30;;;;;;6242517;28;20022;-75
2021/11/21 15:19:30;;;;;;;35.28;13.52;;;12.20;58.40;;;;;;6249787;28;20017;-74
2021/11/21 15:22:31;;;;;;;32.30;13.43;;;12.20;59.00;;;;;;6258333;28;20041;-76
2021/11/21 15:25:32;;;;;;;29.73;13.23;;;12.20;58.50;;;;;;6247270;28;20046;-75
2021/11/21 15:28:33;;;;;;;29.88;13.63;;;12.20;58.60;;;;;;6248340;28;20044;-75
2021/11/21 15:31:36;;;;;;;29.38;13.32;;;12.20;58.60;;;;;;6277507;28;20057;-75
2021/11/21 15:34:39;;;;;;;28.48;13.13;;;12.20;58.70;;;;;;6262207;28;20445;-75
2021/11/21 15:37:40;;;;;;;27.58;12.93;;;12.10;58.70;;;;;;6252571;28;20044;-76
2021/11/21 15:40:53;;;;;;;33.38;14.18;;;12.20;58.80;;;;;;6254710;28;20458;-75
2021/11/21 15:44:07;;;;;;;33.97;14.07;;;12.10;58.70;;;;;;6189294;28;20038;-75
2021/11/21 15:47:09;;;;;;;35.97;16.20;;;12.20;58.80;;;;;;6209196;28;20080;-74
2021/11/21 15:50:11;;;;;;;28.60;14.00;;;12.10;58.80;;;;;;6213406;28;20117;-74
2021/11/21 15:53:13;;;;;;;36.65;13.95;;;12.10;58.80;;;;;;6183090;28;20065;-74
2021/11/21 15:56:15;;;;;;;27.80;13.75;;;12.10;58.80;;;;;;6217831;28;20061;-74
2021/11/21 15:59:16;;;;;;;33.72;12.52;;;12.00;58.90;;;;;;6202943;28;20057;-80